Terminal Aerodrome Forecast
Issued by NWS

Home | Current Version | Previous Version | Graphics & Text | Print | Product List | Glossary On
Versions: 1 2 3 4 5 6 7 8 9 10 11 12 13 14 15 16 17 18 19 20
436
FTUS43 KBIS 221729
TAFDIK
TAF
KDIK 221729Z 2218/2318 28007KT P6SM FEW045 FEW060
     FM222300 26008KT P6SM BKN060
     FM230200 09008KT P6SM SCT050 BKN080
     FM231200 07011KT P6SM BKN008
     FM231600 08013KT P6SM BKN010=

USA.gov is the U.S. government's official web portal to all federal, state and local government web resources and services.